Columbia City, OR

11:38 AM PDT on August 27, 2014 (GMT -0700)
Dillard's Moorage | Change Station
CLOSE
Current Station
Personal Weather Station
Location: St Helens, OR
Elevation: 10 ft
Nearby Weather Stations

Elev 10 ft 45.87 °N, 122.80 °W | Updated 4 minutes ago

Clear
Clear
70.8 °F
Feels Like 70 °F
N
13.0
Wind Variable Wind from NNE
Gusts 15.0 mph

Today
High -- | Low -- °F
--% Chance of Precip.
Yesterday
High -- | Low -- °F
Precip. -- in
6:26 AM 7:58 PM
Waxing Crescent, 4% visible
Pressure 30.04 in
Visibility 10.0 miles
Clouds Clear
Heat Index 70 °F
Dew Point 65 °F
Humidity 83%
Rainfall 0.00 in
Snow Depth Not available.
UV 6 out of 12
Pollen 4.00 out of 12
Air Quality Not available.
Flu Activity Not available.
METAR KSPB 271753Z AUTO VRB03KT 10SM CLR 25/15 A3004 RMK AO2 SLP171 T02500150 10256 20139 50000

More Conditions Fewer Conditions

Pressure 30.04 in
Visibility 10.0 miles
Clouds Clear
Heat Index 70 °F
Dew Point 65 °F
Humidity 83%
Rainfall 0.00 in
Snow Depth Not available.
UV 6 out of 12
Pollen 4.00 out of 12
Air Quality Not available.
Flu Activity Not available.
METAR KSPB 271753Z AUTO VRB03KT 10SM CLR 25/15 A3004 RMK AO2 SLP171 T02500150 10256 20139 50000

More Conditions Fewer Conditions

10-Day Weather Forecast

Almanac

Astronomy

Aug. 27, 2014 Rise Set
Actual Time 6:26 AM PDT 7:58 PM PDT
Civil Twilight 5:54 AM PDT 8:29 PM PDT
Nautical Twilight 5:16 AM PDT 9:07 PM PDT
Astronomical Twilight 4:35 AM PDT 9:48 PM PDT
Moon 8:36 AM PDT 8:43 PM PDT
Length of Visible Light 14h 34m
Length of Day
13h 32m
Tomorrow will be 3m 3s shorter.
Waxing Crescent, 4% of the Moon is Illuminated
Today
Waxing Crescent
Sep 2
First Quarter
Sep 8
Full
Sep 15
Last Quarter
Sep 24
New

Today's Extremes

State Highs State Lows

Community

WunderPhotos

Upload Photos

1,747,751 photos uploaded!

Nearby

Snow Depth

Station Depth Elevation
Seine Creek 0 in 2000 ft
North Fork 1 in 3120 ft
Blazed Alder 0 in 3650 ft
Greenpoint 1 in 3200 ft
Red Hill 0 in 4400 ft

Earthquake Activity

City Distance Mag. Time & Date
No recent earthquake activity has been reported nearby.
Minimum magnitude displayed is 2.5.

Coastal Water Temperatures

Place Temperature
Astoria, OR 71.1 °F
Westport, WA 57.0 °F

Nearby Weather Stations